Redstone Army Air Field
KHUA : now visible

Airfield :











YOU CAN JOIN US ON...

 
LOGIN :

Register | Disclaimer

   EN    FR    IT 

 









Legend :    VFR   Marginal VFR   IFR   Intensive IFR   Very Intensive IFR
Visi :
Ceiling :
>= 8 km
>= 3000ft
5 to 8 km
1000 to 3000 ft
1500m to 5 km
500 to 1000 ft
800 to 1500m
200 to 500 ft
< 800m
< 200 ft
Symbols :   Thunderstorms  Fog  Heavy snow  Heavy precipitations  Wind > 20 kt






- Airport Elevation : 684 ft


KHUA - Redstone Army Air Field

CURRENT METAR :
  • 280808Z AUTO 15004KT 8SM -RA BKN017 OVC130 21/20 A3001 RMK AO2 RAB0759 CIG 017V130 BKN V SCT SLP158

EXPIRED METARs :
  • 280758Z AUTO 00000KT 10SM SCT019 SCT090 OVC130 21/20 A3001 RMK AO2 SLP158 T02060198
  • 280718Z AUTO 00000KT 10SM OVC017 21/20 A3004 RMK AO2 SLP168
  • 280658Z AUTO 00000KT 10SM OVC014 21/20 A3004 RMK AO2 SLP168 T02080196
  • 280558Z AUTO 00000KT 10SM BKN022 OVC060 21/20 A3005 RMK AO2 SLP172 60000 T02060197 10221 20204 402470143 57008
  • 280548Z AUTO 00000KT 10SM BKN023 OVC055 20/20 A3006 RMK AO2 CIG 021V055 SLP175
  • 280538Z AUTO 00000KT 10SM SCT021 OVC055 21/20 A3005 RMK AO2 SLP172

TAF N/A
KZME FIR / North America



MET'MAP, your aeronautical weather chart ! - Copyright ORBIFLY December 2007 - Disclaimer

ORBIFLY MET'MAP TEAM :

Programming & Development : Alexandra Zaïnal
Concept & original design : Baudouin d'Aumeries
Assistance for programming : Marc-Olivier Méhu
Technical & hardware support : Manuel Goepfert

Contact : metmap@orbifly.com




SOURCES & CREDITS :

   NOAA       Earth
Advisory